createdAt,value
2018-06-18T00:02:26.203Z,18.70
2018-06-18T00:04:55.875Z,18.60
2018-06-18T00:07:25.459Z,18.70
2018-06-18T00:09:54.896Z,18.60
2018-06-18T00:12:25.636Z,18.50
2018-06-18T00:14:56.055Z,18.50
2018-06-18T00:17:25.389Z,18.50
2018-06-18T00:19:55.510Z,18.50
2018-06-18T00:22:24.991Z,18.40
2018-06-18T00:24:54.278Z,18.40
2018-06-18T00:27:24.171Z,18.40
2018-06-18T00:29:54.329Z,18.40
2018-06-18T00:32:23.888Z,18.30
2018-06-18T00:34:53.479Z,18.40
2018-06-18T00:37:23.799Z,18.20
2018-06-18T00:39:53.381Z,18.30
2018-06-18T00:42:23.255Z,18.30
2018-06-18T00:44:52.997Z,18.20
2018-06-18T00:47:22.559Z,18.20
2018-06-18T00:49:52.412Z,18.20
2018-06-18T00:52:22.265Z,18.20
2018-06-18T00:54:52.499Z,18.20
2018-06-18T00:57:23.025Z,18.20
2018-06-18T00:59:53.363Z,18.20
2018-06-18T01:02:22.913Z,18.10
2018-06-18T01:04:52.863Z,18.10
2018-06-18T01:07:22.391Z,18.10
2018-06-18T01:09:51.853Z,18.10
2018-06-18T01:12:21.485Z,18.00
2018-06-18T01:14:50.822Z,18.10
2018-06-18T01:17:20.421Z,18.20
2018-06-18T01:19:50.019Z,18.20
2018-06-18T01:22:20.041Z,18.10
2018-06-18T01:24:53.184Z,18.10
2018-06-18T01:27:23.009Z,18.00
2018-06-18T01:29:52.367Z,18.00
2018-06-18T01:32:22.253Z,18.00
2018-06-18T01:34:51.641Z,18.00
2018-06-18T01:37:21.209Z,17.90
2018-06-18T01:39:50.787Z,17.80
2018-06-18T01:42:20.749Z,17.90
2018-06-18T01:44:50.336Z,17.90
2018-06-18T01:47:20.023Z,17.90
2018-06-18T01:49:50.006Z,17.90
2018-06-18T01:52:19.549Z,17.80
2018-06-18T01:54:48.877Z,17.80
2018-06-18T01:57:18.591Z,17.90
2018-06-18T01:59:48.248Z,18.00
2018-06-18T02:02:17.593Z,18.00
2018-06-18T02:04:47.572Z,17.90
2018-06-18T02:07:17.293Z,17.90
2018-06-18T02:09:47.397Z,18.00
2018-06-18T02:12:17.289Z,17.80
2018-06-18T02:14:46.814Z,17.80
2018-06-18T02:17:16.366Z,17.70
2018-06-18T02:19:45.793Z,17.50
2018-06-18T02:22:15.141Z,17.50
2018-06-18T02:24:44.619Z,17.60
2018-06-18T02:27:17.344Z,17.60
2018-06-18T02:29:52.310Z,17.70
2018-06-18T02:32:26.798Z,17.70
2018-06-18T02:35:01.186Z,17.60
2018-06-18T02:37:35.910Z,17.70
2018-06-18T02:40:10.330Z,17.60
2018-06-18T02:42:39.413Z,17.60
2018-06-18T02:45:08.586Z,17.60
2018-06-18T02:47:38.278Z,17.70
2018-06-18T02:50:07.459Z,17.70
2018-06-18T02:52:36.529Z,17.60
2018-06-18T02:55:06.403Z,17.50
2018-06-18T02:57:35.639Z,17.60
2018-06-18T03:00:04.984Z,17.70
2018-06-18T03:02:34.072Z,17.70
2018-06-18T03:05:03.184Z,17.70
2018-06-18T03:07:32.388Z,17.70
2018-06-18T03:10:01.556Z,17.60
2018-06-18T03:12:30.822Z,17.60
2018-06-18T03:14:59.955Z,17.60
2018-06-18T03:17:29.398Z,17.60
2018-06-18T03:20:03.940Z,17.60
2018-06-18T03:22:38.554Z,17.60
2018-06-18T03:25:13.503Z,17.50
2018-06-18T03:27:48.314Z,17.40
2018-06-18T03:30:17.727Z,17.40
2018-06-18T03:32:47.610Z,17.40
2018-06-18T03:35:17.617Z,17.30
2018-06-18T03:37:47.097Z,17.30
2018-06-18T03:40:16.557Z,17.30
2018-06-18T03:42:46.983Z,17.30
2018-06-18T03:45:23.203Z,17.10
2018-06-18T03:47:53.731Z,17.20
2018-06-18T03:50:23.975Z,17.00
2018-06-18T03:52:53.951Z,17.10
2018-06-18T03:55:27.861Z,17.10
2018-06-18T03:57:57.921Z,17.10
2018-06-18T04:00:31.295Z,17.10
2018-06-18T04:03:06.219Z,17.10
2018-06-18T04:05:41.186Z,17.10
2018-06-18T04:08:12.750Z,17.10
2018-06-18T04:10:47.961Z,17.20
2018-06-18T04:13:18.616Z,17.10
2018-06-18T04:15:48.508Z,17.10
2018-06-18T04:18:18.607Z,17.10
2018-06-18T04:20:50.220Z,17.10
2018-06-18T04:23:21.894Z,17.10
2018-06-18T04:25:51.805Z,17.20
2018-06-18T04:28:21.838Z,17.20
2018-06-18T04:30:53.241Z,17.10
2018-06-18T04:33:25.978Z,17.10
2018-06-18T04:35:56.488Z,16.90
2018-06-18T04:38:27.082Z,17.00
2018-06-18T04:40:56.860Z,17.00
2018-06-18T04:43:31.906Z,16.90
2018-06-18T04:46:06.698Z,16.90
2018-06-18T04:48:42.600Z,17.00
2018-06-18T04:51:12.786Z,17.10
2018-06-18T04:53:42.604Z,17.10
2018-06-18T04:56:12.754Z,17.20
2018-06-18T04:58:42.932Z,17.10
2018-06-18T05:01:18.412Z,17.10
2018-06-18T05:03:48.764Z,17.10
2018-06-18T05:06:18.710Z,17.20
2018-06-18T05:09:52.738Z,17.20
2018-06-18T05:12:22.608Z,17.20
2018-06-18T05:14:53.024Z,17.20
2018-06-18T05:17:22.678Z,17.20
2018-06-18T05:19:52.477Z,17.20
2018-06-18T05:22:21.997Z,17.20
2018-06-18T05:24:53.489Z,17.20
2018-06-18T05:27:25.728Z,17.30
2018-06-18T05:29:57.179Z,17.30
2018-06-18T05:32:26.696Z,17.30
2018-06-18T05:34:56.388Z,17.30
2018-06-18T05:37:33.825Z,17.40
2018-06-18T05:40:04.693Z,17.30
2018-06-18T05:42:34.155Z,17.50
2018-06-18T05:45:04.532Z,17.50
2018-06-18T05:47:34.065Z,17.60
2018-06-18T05:50:05.115Z,17.50
2018-06-18T05:52:35.088Z,17.60
2018-06-18T05:55:04.646Z,17.60
2018-06-18T05:57:35.082Z,17.60
2018-06-18T06:00:05.607Z,17.60
2018-06-18T06:02:35.251Z,17.70
2018-06-18T06:05:05.502Z,17.70
2018-06-18T06:07:35.310Z,17.80
2018-06-18T06:10:05.208Z,18.00
2018-06-18T06:12:35.089Z,18.10
2018-06-18T06:15:05.286Z,18.20
2018-06-18T06:17:35.413Z,18.20
2018-06-18T06:20:06.269Z,18.20
2018-06-18T06:22:36.578Z,18.20
2018-06-18T06:25:06.425Z,18.30
2018-06-18T06:27:37.236Z,18.00
2018-06-18T06:30:06.815Z,18.00
2018-06-18T06:32:36.570Z,18.00
2018-06-18T06:35:14.133Z,18.10
2018-06-18T06:37:44.578Z,18.30
2018-06-18T06:40:14.366Z,18.30
2018-06-18T06:42:45.083Z,18.40
2018-06-18T06:45:15.196Z,18.40
2018-06-18T06:47:45.099Z,18.30
2018-06-18T06:50:15.035Z,18.50
2018-06-18T06:52:44.876Z,18.50
2018-06-18T06:55:14.615Z,18.60
2018-06-18T06:57:44.522Z,18.70
2018-06-18T07:00:14.763Z,18.70
2018-06-18T07:02:44.677Z,18.70
2018-06-18T07:05:14.347Z,18.60
2018-06-18T07:07:44.669Z,18.70
2018-06-18T07:10:15.295Z,18.60
2018-06-18T07:12:45.450Z,18.60
2018-06-18T07:15:16.177Z,18.80
2018-06-18T07:17:46.466Z,18.90
2018-06-18T07:20:16.553Z,19.10
2018-06-18T07:22:46.354Z,19.20
2018-06-18T07:25:16.411Z,19.50
2018-06-18T07:27:46.916Z,19.50
2018-06-18T07:30:16.625Z,19.80
2018-06-18T07:32:46.764Z,19.80
2018-06-18T07:35:17.066Z,19.90
2018-06-18T07:37:46.609Z,19.90
2018-06-18T07:40:16.961Z,19.70
2018-06-18T07:42:46.622Z,19.80
2018-06-18T07:45:16.320Z,19.90
2018-06-18T07:47:46.515Z,20.10
2018-06-18T07:50:16.713Z,20.00
2018-06-18T07:52:46.862Z,20.00
2018-06-18T07:55:16.382Z,20.10
2018-06-18T07:57:46.393Z,20.00
2018-06-18T08:00:17.149Z,20.00
2018-06-18T08:02:47.009Z,20.20
2018-06-18T08:05:16.763Z,20.30
2018-06-18T08:07:46.726Z,20.10
2018-06-18T08:10:16.910Z,20.10
2018-06-18T08:12:46.945Z,20.10
2018-06-18T08:15:16.664Z,20.00
2018-06-18T08:17:46.470Z,20.20
2018-06-18T08:20:16.996Z,20.10
2018-06-18T08:22:47.165Z,20.10
2018-06-18T08:25:17.146Z,19.90
2018-06-18T08:27:46.627Z,19.80
2018-06-18T08:30:17.598Z,19.90
2018-06-18T08:32:48.666Z,19.90
2018-06-18T08:35:18.668Z,19.80
2018-06-18T08:37:48.983Z,19.90
2018-06-18T08:40:19.224Z,19.70
2018-06-18T08:42:49.541Z,19.80
2018-06-18T08:45:19.414Z,19.80
2018-06-18T08:47:49.387Z,19.60
2018-06-18T08:50:25.141Z,19.80
2018-06-18T08:53:00.409Z,19.80
2018-06-18T08:55:36.049Z,19.80
2018-06-18T08:58:11.635Z,19.60
2018-06-18T09:00:46.588Z,19.70
2018-06-18T09:03:21.724Z,19.70
2018-06-18T09:05:54.767Z,19.80
2018-06-18T09:08:31.543Z,19.90
2018-06-18T09:11:02.184Z,19.80
2018-06-18T09:13:32.426Z,20.00
2018-06-18T09:16:02.324Z,19.80
2018-06-18T09:18:32.222Z,20.00
2018-06-18T09:21:02.225Z,20.10
2018-06-18T09:23:32.680Z,20.00
2018-06-18T09:26:02.950Z,20.20
2018-06-18T09:28:32.797Z,20.40
2018-06-18T09:31:02.346Z,20.30
2018-06-18T09:33:32.081Z,20.60
2018-06-18T09:36:02.224Z,20.50
2018-06-18T09:38:31.871Z,20.50
2018-06-18T09:41:01.625Z,20.40
2018-06-18T09:43:32.022Z,20.50
2018-06-18T09:46:01.777Z,20.40
2018-06-18T09:48:36.739Z,20.60
2018-06-18T09:51:11.621Z,20.50
2018-06-18T09:53:46.513Z,20.50
2018-06-18T09:56:21.420Z,20.80
2018-06-18T09:58:56.639Z,20.80
2018-06-18T10:01:30.853Z,20.70
2018-06-18T10:04:01.698Z,20.70
2018-06-18T10:06:33.874Z,20.60
2018-06-18T10:09:05.792Z,20.60
2018-06-18T10:11:36.644Z,20.50
2018-06-18T10:14:08.921Z,20.30
2018-06-18T10:16:39.202Z,20.40
2018-06-18T10:19:09.598Z,20.50
2018-06-18T10:21:39.658Z,20.50
2018-06-18T10:24:09.419Z,20.70
2018-06-18T10:26:39.065Z,20.80
2018-06-18T10:29:08.868Z,21.00
2018-06-18T10:31:38.822Z,21.10
2018-06-18T10:34:14.051Z,21.00
2018-06-18T10:36:49.147Z,21.00
2018-06-18T10:39:23.970Z,21.30
2018-06-18T10:44:06.411Z,21.40
2018-06-18T10:46:37.707Z,21.40
2018-06-18T10:49:07.632Z,21.40
2018-06-18T10:51:37.600Z,21.30
2018-06-18T10:54:07.628Z,21.40
2018-06-18T10:56:37.162Z,21.40
2018-06-18T10:59:07.129Z,21.70
2018-06-18T11:01:36.721Z,21.70
2018-06-18T11:04:11.241Z,21.80
2018-06-18T11:06:41.257Z,22.00
2018-06-18T11:09:12.181Z,21.90
2018-06-18T11:11:41.497Z,21.80
2018-06-18T11:14:11.547Z,21.90
2018-06-18T11:16:41.945Z,21.70
2018-06-18T11:19:16.434Z,21.70
2018-06-18T11:21:51.651Z,21.90
2018-06-18T11:24:29.609Z,22.30
2018-06-18T11:27:01.280Z,22.20
2018-06-18T11:29:31.333Z,22.30
2018-06-18T11:32:01.210Z,22.40
2018-06-18T11:34:31.339Z,22.60
2018-06-18T11:37:01.345Z,22.50
2018-06-18T11:39:31.566Z,22.40
2018-06-18T11:42:01.450Z,22.50
2018-06-18T11:44:31.396Z,22.60
2018-06-18T11:47:01.700Z,22.70
2018-06-18T11:49:31.555Z,22.80
2018-06-18T11:52:01.400Z,22.70
2018-06-18T11:54:31.865Z,22.70
2018-06-18T11:57:01.424Z,22.60
2018-06-18T11:59:37.343Z,22.80
2018-06-18T12:02:12.085Z,22.80
2018-06-18T12:04:47.983Z,22.70
2018-06-18T12:07:24.152Z,22.20
2018-06-18T12:09:54.221Z,22.40
2018-06-18T12:12:24.442Z,22.40
2018-06-18T12:14:54.577Z,22.40
2018-06-18T12:17:25.365Z,22.50
2018-06-18T12:19:55.040Z,22.40
2018-06-18T12:22:25.973Z,22.40
2018-06-18T12:24:56.321Z,22.30
2018-06-18T12:27:29.021Z,22.50
2018-06-18T12:29:58.955Z,22.60
2018-06-18T12:32:29.207Z,22.30
2018-06-18T12:34:58.946Z,22.60
2018-06-18T12:37:28.617Z,22.50
2018-06-18T12:39:58.228Z,22.60
2018-06-18T12:42:27.952Z,22.60
2018-06-18T12:45:02.986Z,22.70
2018-06-18T12:47:38.696Z,22.90
2018-06-18T12:50:13.978Z,22.80
2018-06-18T12:52:48.980Z,23.00
2018-06-18T12:55:25.180Z,23.40
2018-06-18T12:57:55.062Z,23.50
2018-06-18T13:00:24.818Z,23.20
2018-06-18T13:02:58.038Z,23.40
2018-06-18T13:05:27.769Z,23.60
2018-06-18T13:07:57.716Z,23.70
2018-06-18T13:10:27.544Z,23.60
2018-06-18T13:12:57.096Z,23.60
2018-06-18T13:15:26.997Z,23.70
2018-06-18T13:17:56.746Z,23.80
2018-06-18T13:20:26.625Z,23.80
2018-06-18T13:22:57.920Z,23.60
2018-06-18T13:25:27.762Z,23.60
2018-06-18T13:28:03.353Z,23.60
2018-06-18T13:30:33.284Z,23.60
2018-06-18T13:33:03.332Z,23.50
2018-06-18T13:35:33.984Z,23.50
2018-06-18T13:38:08.792Z,23.40
2018-06-18T13:40:43.918Z,23.50
2018-06-18T13:43:19.028Z,23.50
2018-06-18T13:45:58.200Z,23.50
2018-06-18T13:48:33.362Z,23.50
2018-06-18T13:51:03.860Z,23.40
2018-06-18T13:53:33.632Z,23.50
2018-06-18T13:56:03.398Z,23.30
2018-06-18T13:58:32.968Z,23.20
2018-06-18T14:01:02.382Z,23.30
2018-06-18T14:03:32.928Z,23.30
2018-06-18T14:06:03.032Z,23.60
2018-06-18T14:08:33.194Z,23.60
2018-06-18T14:11:02.972Z,23.70
2018-06-18T14:13:32.975Z,23.60
2018-06-18T14:16:03.130Z,23.70
2018-06-18T14:18:32.969Z,23.80
2018-06-18T14:21:02.983Z,23.80
2018-06-18T14:23:33.003Z,23.70
2018-06-18T14:26:03.125Z,23.60
2018-06-18T14:28:33.057Z,23.50
2018-06-18T14:31:08.086Z,23.50
2018-06-18T14:33:42.750Z,23.40
2018-06-18T14:36:17.531Z,23.30
2018-06-18T14:38:52.972Z,23.30
2018-06-18T14:41:23.134Z,23.30
2018-06-18T14:43:52.805Z,23.30
2018-06-18T14:46:23.187Z,23.30
2018-06-18T14:49:00.911Z,23.30
2018-06-18T14:51:30.891Z,23.20
2018-06-18T14:54:01.608Z,23.10
2018-06-18T14:56:35.839Z,23.10
2018-06-18T14:59:10.739Z,23.20
2018-06-18T15:01:40.502Z,23.20
2018-06-18T15:04:10.309Z,23.30
2018-06-18T15:06:40.554Z,23.20
2018-06-18T15:09:12.331Z,23.20
2018-06-18T15:11:43.122Z,23.20
2018-06-18T15:14:13.928Z,23.30
2018-06-18T15:16:44.069Z,23.50
2018-06-18T15:19:14.092Z,23.50
2018-06-18T15:21:48.386Z,23.40
2018-06-18T15:24:22.920Z,23.30
2018-06-18T15:26:52.873Z,23.30
2018-06-18T15:29:22.485Z,23.30
2018-06-18T15:31:52.916Z,23.30
2018-06-18T15:34:22.801Z,23.30
2018-06-18T15:36:52.541Z,23.30
2018-06-18T15:39:22.178Z,23.30
2018-06-18T15:41:52.114Z,23.30
2018-06-18T15:44:22.061Z,23.30
2018-06-18T15:46:51.561Z,23.30
2018-06-18T15:49:21.485Z,23.30
2018-06-18T15:51:51.644Z,23.20
2018-06-18T15:54:22.778Z,23.10
2018-06-18T15:56:52.763Z,23.10
2018-06-18T15:59:22.848Z,23.20
2018-06-18T16:01:52.335Z,23.10
2018-06-18T16:04:22.035Z,23.10
2018-06-18T16:06:54.191Z,23.10
2018-06-18T16:09:24.599Z,23.10
2018-06-18T16:11:54.452Z,23.20
2018-06-18T16:14:24.503Z,23.20
2018-06-18T16:16:54.440Z,23.20
2018-06-18T16:19:23.966Z,22.90
2018-06-18T16:21:53.696Z,23.20
2018-06-18T16:24:23.852Z,23.20
2018-06-18T16:26:53.932Z,23.30
2018-06-18T16:29:23.994Z,23.30
2018-06-18T16:31:55.465Z,23.20
2018-06-18T16:34:24.897Z,23.20
2018-06-18T16:36:54.342Z,23.20
2018-06-18T16:39:24.370Z,23.20
2018-06-18T16:41:54.502Z,23.20
2018-06-18T16:44:24.571Z,23.30
2018-06-18T16:46:55.595Z,23.10
2018-06-18T16:49:25.507Z,23.30
2018-06-18T16:51:56.495Z,23.30
2018-06-18T16:54:26.538Z,23.30
2018-06-18T16:56:56.807Z,23.30
2018-06-18T16:59:27.131Z,23.30
2018-06-18T17:01:57.198Z,23.30
2018-06-18T17:04:27.852Z,23.30
2018-06-18T17:06:57.644Z,23.20
2018-06-18T17:09:27.467Z,23.30
2018-06-18T17:11:57.027Z,23.30
2018-06-18T17:14:27.229Z,23.30
2018-06-18T17:16:58.675Z,23.30
2018-06-18T17:19:29.068Z,23.20
2018-06-18T17:21:59.166Z,23.10
2018-06-18T17:24:29.253Z,23.00
2018-06-18T17:26:59.735Z,22.90
2018-06-18T17:29:29.667Z,22.80
2018-06-18T17:31:59.763Z,22.70
2018-06-18T17:34:30.483Z,22.70
2018-06-18T17:37:00.977Z,22.80
2018-06-18T17:39:31.936Z,22.90
2018-06-18T17:42:03.203Z,23.00
2018-06-18T17:44:34.250Z,23.00
2018-06-18T17:47:04.895Z,22.90
2018-06-18T17:49:35.622Z,22.70
2018-06-18T17:52:07.408Z,22.70
2018-06-18T17:54:38.719Z,22.60
2018-06-18T17:57:09.565Z,22.50
2018-06-18T17:59:42.605Z,22.50
2018-06-18T18:02:13.501Z,22.40
2018-06-18T18:04:45.531Z,22.40
2018-06-18T18:07:16.725Z,22.40
2018-06-18T18:09:47.431Z,22.50
2018-06-18T18:12:18.940Z,22.40
2018-06-18T18:14:49.415Z,22.40
2018-06-18T18:17:20.023Z,22.30
2018-06-18T18:19:50.671Z,22.30
2018-06-18T18:22:20.453Z,22.00
2018-06-18T18:24:50.589Z,22.10
2018-06-18T18:27:21.240Z,22.10
2018-06-18T18:29:53.231Z,22.00
2018-06-18T18:32:23.695Z,22.00
2018-06-18T18:34:54.433Z,21.70
2018-06-18T18:37:25.383Z,21.80
2018-06-18T18:39:55.682Z,21.80
2018-06-18T18:42:25.991Z,21.80
2018-06-18T18:44:57.060Z,21.80
2018-06-18T18:47:27.797Z,21.80
2018-06-18T18:49:58.556Z,21.80
2018-06-18T18:52:29.213Z,21.80
2018-06-18T18:55:38.597Z,21.70
2018-06-18T18:58:20.839Z,21.70
2018-06-18T19:00:52.417Z,21.60
2018-06-18T19:03:28.517Z,21.60
2018-06-18T19:06:00.009Z,21.60
2018-06-18T19:08:32.218Z,21.50
2018-06-18T19:11:05.825Z,21.50
2018-06-18T19:13:38.133Z,21.50
2018-06-18T19:16:08.618Z,21.50
2018-06-18T19:18:40.879Z,21.40
2018-06-18T19:21:11.709Z,21.30
2018-06-18T19:23:42.630Z,21.30
2018-06-18T19:26:13.165Z,21.40
2018-06-18T19:28:44.299Z,21.30
2018-06-18T19:31:18.169Z,21.30
2018-06-18T19:34:22.285Z,21.20
2018-06-18T19:36:54.618Z,21.20
2018-06-18T19:39:26.696Z,21.20
2018-06-18T19:41:56.124Z,21.20
2018-06-18T19:44:25.862Z,21.20
2018-06-18T19:47:13.415Z,21.20
2018-06-18T19:49:42.719Z,21.10
2018-06-18T19:52:12.210Z,21.10
2018-06-18T19:54:46.170Z,21.10
2018-06-18T19:57:15.929Z,21.20
2018-06-18T19:59:45.147Z,21.10
2018-06-18T20:02:14.656Z,21.10
2018-06-18T20:04:44.422Z,21.20
2018-06-18T20:07:14.323Z,21.20
2018-06-18T20:09:43.515Z,21.20
2018-06-18T20:12:13.212Z,21.20
2018-06-18T20:14:42.293Z,21.20
2018-06-18T20:17:11.590Z,21.20
2018-06-18T20:19:40.778Z,21.20
2018-06-18T20:22:10.311Z,21.10
2018-06-18T20:24:42.123Z,21.10
2018-06-18T20:27:11.553Z,21.10
2018-06-18T20:29:42.082Z,21.00
2018-06-18T20:32:12.303Z,20.80
2018-06-18T20:34:42.904Z,20.90
2018-06-18T20:37:12.188Z,20.90
2018-06-18T20:39:41.489Z,20.90
2018-06-18T20:42:11.456Z,20.90
2018-06-18T20:44:41.650Z,20.70
2018-06-18T20:47:11.327Z,20.80
2018-06-18T20:49:40.837Z,20.90
2018-06-18T20:52:10.698Z,20.80
2018-06-18T20:54:40.275Z,20.80
2018-06-18T20:57:09.779Z,20.70
2018-06-18T20:59:39.301Z,20.70
2018-06-18T21:02:08.669Z,20.80
2018-06-18T21:04:38.277Z,20.90
2018-06-18T21:07:07.883Z,20.80
2018-06-18T21:09:37.267Z,20.90
2018-06-18T21:12:06.918Z,20.90
2018-06-18T21:14:36.350Z,20.80
2018-06-18T21:17:05.814Z,20.70
2018-06-18T21:19:36.153Z,20.80
2018-06-18T21:22:05.861Z,20.80
2018-06-18T21:24:36.272Z,20.80
2018-06-18T21:27:06.738Z,20.70
2018-06-18T21:29:36.268Z,20.80
2018-06-18T21:32:06.109Z,20.60
2018-06-18T21:34:35.901Z,20.70
2018-06-18T21:37:05.771Z,20.70
2018-06-18T21:39:35.364Z,20.90
2018-06-18T21:42:06.904Z,20.80
2018-06-18T21:44:42.099Z,20.90
2018-06-18T21:47:11.816Z,20.90
2018-06-18T21:49:42.112Z,20.90
2018-06-18T21:52:12.033Z,20.90
2018-06-18T21:54:41.621Z,21.00
2018-06-18T21:57:11.173Z,20.90
2018-06-18T21:59:40.969Z,20.90
2018-06-18T22:02:10.911Z,20.90
2018-06-18T22:04:40.509Z,20.90
2018-06-18T22:07:10.833Z,20.90
2018-06-18T22:09:40.394Z,20.90
2018-06-18T22:12:09.893Z,20.80
2018-06-18T22:14:39.272Z,20.70
2018-06-18T22:17:09.276Z,20.80
2018-06-18T22:19:38.833Z,20.80
2018-06-18T22:22:08.215Z,20.80
2018-06-18T22:24:37.888Z,20.80
2018-06-18T22:27:07.287Z,20.80
2018-06-18T22:29:37.030Z,20.80
2018-06-18T22:32:06.450Z,20.80
2018-06-18T22:34:36.251Z,20.90
2018-06-18T22:37:06.176Z,21.00
2018-06-18T22:39:36.485Z,21.10
2018-06-18T22:42:05.898Z,21.20
2018-06-18T22:44:35.821Z,21.20
2018-06-18T22:47:07.036Z,21.10
2018-06-18T22:49:38.317Z,21.10
2018-06-18T22:52:08.569Z,21.00
2018-06-18T22:54:44.422Z,20.90
2018-06-18T22:57:14.293Z,20.70
2018-06-18T22:59:44.257Z,20.70
2018-06-18T23:02:16.076Z,20.60
2018-06-18T23:04:46.345Z,20.50
2018-06-18T23:07:16.154Z,20.50
2018-06-18T23:09:46.355Z,20.50
2018-06-18T23:12:17.131Z,20.40
2018-06-18T23:14:47.765Z,20.40
2018-06-18T23:17:17.788Z,20.40
2018-06-18T23:19:47.575Z,20.40
2018-06-18T23:22:17.332Z,20.30
2018-06-18T23:24:47.181Z,20.20
2018-06-18T23:27:17.164Z,20.20
2018-06-18T23:29:46.847Z,20.20
2018-06-18T23:32:16.864Z,20.20
2018-06-18T23:34:46.486Z,20.10
2018-06-18T23:37:16.819Z,20.10
2018-06-18T23:39:46.476Z,20.00
2018-06-18T23:42:16.370Z,20.00
2018-06-18T23:44:46.254Z,20.00
2018-06-18T23:47:17.022Z,19.90
2018-06-18T23:49:46.930Z,19.90
2018-06-18T23:52:16.567Z,19.90
2018-06-18T23:54:46.476Z,19.70
2018-06-18T23:57:16.700Z,19.70
2018-06-18T23:59:46.799Z,19.60
